.
WxDataArchive / Data Records for 2015-05-23
2015-05-22 May 2015 2015-05-24

Data Records for Saturday, 23 May 2015

Time	Temp	Chill	HIndex	Humid	Dewpt	 Wind 	HiWind	WindDir	Rain 	Barom
-----	----	-----	------	-----	-----	------	------	-------	-----	-----
00:00	56.0	56.0	56.0	44	34.4	0	1	112	0.00	30.271 
00:05	55.9	55.9	55.9	44	34.3	0	0	---	0.00	30.271 
00:10	55.7	55.7	55.7	45	34.7	0	0	---	0.00	30.271 
00:15	55.4	55.4	55.4	45	34.4	0	0	---	0.00	30.272 
00:20	55.3	55.3	55.3	46	34.9	0	0	---	0.00	30.272 
00:25	55.0	55.0	55.0	48	35.7	0	0	---	0.00	30.272 
00:30	54.5	54.5	54.5	48	35.2	0	0	---	0.00	30.274 
00:35	54.2	54.2	54.2	49	35.5	0	0	---	0.00	30.274 
00:40	53.6	53.6	53.6	50	35.4	0	0	---	0.00	30.274 
00:45	53.3	53.3	53.3	51	35.6	0	0	---	0.00	30.278 
00:50	53.1	53.1	53.1	52	35.9	0	0	---	0.00	30.278 
00:55	52.6	52.6	52.6	52	35.5	0	0	---	0.00	30.278 
01:00	52.3	52.3	52.3	53	35.7	0	0	---	0.00	30.277 
01:05	52.0	52.0	52.0	54	35.9	0	0	---	0.00	30.277 
01:10	51.7	51.7	51.7	55	36.1	0	0	---	0.00	30.277 
01:15	51.4	51.4	51.4	56	36.2	0	0	---	0.00	30.274 
01:20	51.0	51.0	51.0	57	36.3	0	0	---	0.00	30.274 
01:25	50.8	50.8	50.8	58	36.6	0	0	---	0.00	30.274 
01:30	50.7	50.7	50.7	58	36.5	0	0	---	0.00	30.273 
01:35	50.4	50.4	50.4	58	36.2	0	0	---	0.00	30.273 
01:40	50.2	50.2	50.2	60	36.9	0	0	---	0.00	30.273 
01:45	50.1	50.1	50.1	61	37.2	0	0	---	0.00	30.271 
01:50	49.9	49.9	49.9	61	37.0	0	0	---	0.00	30.271 
01:55	49.6	49.6	49.6	61	36.7	0	0	---	0.00	30.271 
02:00	49.5	49.5	49.5	63	37.4	0	0	---	0.00	30.274 
02:05	49.2	49.2	49.2	62	36.7	0	0	---	0.00	30.274 
02:10	49.1	49.1	49.1	64	37.5	0	0	---	0.00	30.274 
02:15	48.8	48.8	48.8	64	37.2	0	0	---	0.00	30.275 
02:20	48.8	48.8	48.8	66	38.0	0	0	---	0.00	30.275 
02:25	48.6	48.6	48.6	67	38.1	0	0	---	0.00	30.275 
02:30	48.3	48.3	48.3	67	37.9	0	0	---	0.00	30.276 
02:35	48.2	48.2	48.2	68	38.1	0	0	---	0.00	30.276 
02:40	48.0	48.0	48.0	68	37.9	0	0	---	0.00	30.276 
02:45	47.9	47.9	47.9	69	38.2	0	0	---	0.00	30.277 
02:50	47.6	47.6	47.6	69	37.9	0	0	---	0.00	30.277 
02:55	47.4	47.4	47.4	71	38.5	0	0	---	0.00	30.277 
03:00	47.3	47.3	47.3	71	38.4	0	0	---	0.00	30.287 
03:05	47.0	47.0	47.0	72	38.4	0	0	---	0.00	30.287 
03:10	46.7	46.7	46.7	72	38.2	0	0	---	0.00	30.287 
03:15	46.5	46.5	46.5	73	38.3	0	0	---	0.00	30.283 
03:20	46.4	46.4	46.4	74	38.6	0	0	---	0.00	30.283 
03:25	46.2	46.2	46.2	74	38.4	0	0	---	0.00	30.283 
03:30	46.1	46.1	46.1	75	38.6	0	0	---	0.00	30.290 
03:35	46.1	46.1	46.1	76	39.0	0	0	---	0.00	30.290 
03:40	46.0	46.0	46.0	77	39.2	0	0	---	0.00	30.290 
03:45	45.8	45.8	45.8	77	39.0	0	0	---	0.00	30.292 
03:50	45.8	45.8	45.8	77	39.0	0	0	---	0.00	30.292 
03:55	45.7	45.7	45.7	77	38.9	0	0	---	0.00	30.292 
04:00	45.5	45.5	45.5	78	39.0	0	0	---	0.00	30.292 
04:05	45.4	45.4	45.4	78	38.9	0	0	---	0.00	30.292 
04:10	45.2	45.2	45.2	79	39.1	0	0	---	0.00	30.292 
04:15	45.2	45.2	45.2	79	39.1	0	0	---	0.00	30.291 
04:20	45.1	45.1	45.1	80	39.3	0	0	---	0.00	30.291 
04:25	44.9	44.9	44.9	80	39.1	0	0	---	0.00	30.291 
04:30	44.6	44.6	44.6	80	38.8	0	0	---	0.00	30.292 
04:35	44.3	44.3	44.3	81	38.8	0	0	---	0.00	30.292 
04:40	44.2	44.2	44.2	81	38.7	0	0	---	0.00	30.292 
04:45	44.1	44.1	44.1	81	38.6	0	0	---	0.00	30.293 
04:50	43.9	43.9	43.9	82	38.8	0	0	---	0.00	30.293 
04:55	43.8	43.8	43.8	82	38.7	0	0	---	0.00	30.293 
05:00	43.6	43.6	43.6	82	38.5	0	0	---	0.00	30.293 
05:05	43.5	43.5	43.5	82	38.4	0	0	---	0.00	30.293 
05:10	43.3	43.3	43.3	83	38.5	0	0	---	0.00	30.293 
05:15	43.2	43.2	43.2	83	38.4	0	0	---	0.00	30.301 
05:20	43.2	43.2	43.2	83	38.4	0	0	---	0.00	30.301 
05:25	43.2	43.2	43.2	84	38.7	0	0	---	0.00	30.301 
05:30	43.2	43.2	43.2	84	38.7	0	0	---	0.00	30.305 
05:35	43.2	43.2	43.2	84	38.7	0	0	---	0.00	30.305 
05:40	43.2	43.2	43.2	84	38.7	0	0	---	0.00	30.305 
05:45	43.2	43.2	43.2	85	39.0	0	0	---	0.00	30.310 
05:50	43.1	43.1	43.1	85	38.9	0	0	---	0.00	30.310 
05:55	43.1	43.1	43.1	85	38.9	0	0	---	0.00	30.310 
06:00	43.1	43.1	43.1	85	38.9	0	0	---	0.00	30.313 
06:05	43.1	43.1	43.1	85	38.9	0	0	---	0.00	30.313 
06:10	42.9	42.9	42.9	85	38.7	0	0	---	0.00	30.313 
06:15	42.9	42.9	42.9	86	39.0	0	0	---	0.00	30.319 
06:20	42.9	42.9	42.9	86	39.0	0	0	---	0.00	30.319 
06:25	42.9	42.9	42.9	86	39.0	0	0	---	0.00	30.319 
06:30	42.8	42.8	42.8	86	38.9	0	0	---	0.00	30.327 
06:35	42.8	42.8	42.8	86	38.9	0	0	---	0.00	30.327 
06:40	42.8	42.8	42.8	86	38.9	0	0	---	0.00	30.327 
06:45	42.8	42.8	42.8	86	38.9	0	0	---	0.00	30.330 
06:50	42.8	42.8	42.8	87	39.2	0	1	68	0.00	30.330 
06:55	42.9	42.9	42.9	87	39.3	0	0	---	0.00	30.330 
07:00	43.2	43.2	43.2	87	39.6	0	0	---	0.00	30.336 
07:05	43.5	43.5	43.5	87	39.9	0	1	90	0.00	30.336 
07:10	44.2	44.2	44.2	84	39.7	0	2	90	0.00	30.336 
07:15	45.2	45.2	45.2	81	39.7	0	2	90	0.00	30.342 
07:20	46.1	46.1	46.1	78	39.6	1	2	90	0.00	30.342 
07:25	46.8	46.8	46.8	76	39.6	0	2	90	0.00	30.342 
07:30	47.6	47.6	47.6	75	40.1	0	3	90	0.00	30.340 
07:35	48.5	48.5	48.5	73	40.2	0	2	90	0.00	30.340 
07:40	49.2	49.2	49.2	72	40.6	0	3	90	0.00	30.340 
07:45	50.1	50.1	50.1	71	41.1	0	3	90	0.00	30.340 
07:50	51.0	51.0	51.0	70	41.6	0	2	90	0.00	30.340 
07:55	51.7	51.7	51.7	69	41.9	0	2	90	0.00	30.340 
08:00	52.3	52.3	52.3	67	41.7	1	3	90	0.00	30.341 
08:05	52.6	52.6	52.6	67	42.0	1	3	90	0.00	30.341 
08:10	53.1	53.1	53.1	67	42.4	0	3	90	0.00	30.341 
08:15	53.5	53.5	53.5	66	42.4	1	3	90	0.00	30.345 
08:20	54.1	54.1	54.1	66	43.0	0	2	90	0.00	30.345 
08:25	54.5	54.5	54.5	66	43.4	0	2	90	0.00	30.345 
08:30	54.8	54.8	54.8	65	43.3	0	1	90	0.00	30.348 
08:35	54.8	54.8	54.8	66	43.7	0	2	90	0.00	30.348 
08:40	55.0	55.0	55.0	65	43.5	1	2	338	0.00	30.348 
08:45	55.3	55.3	55.3	66	44.1	0	3	338	0.00	30.349 
08:50	55.9	55.9	55.9	66	44.7	0	1	338	0.00	30.349 
08:55	56.5	56.5	56.5	64	44.5	1	2	338	0.00	30.349 
09:00	56.9	56.9	56.9	61	43.6	0	2	338	0.00	30.351 
09:05	57.8	57.8	57.8	62	44.9	0	0	---	0.00	30.351 
09:10	58.6	58.6	58.6	59	44.3	0	1	338	0.00	30.351 
09:15	59.5	59.5	59.5	59	45.2	0	3	338	0.00	30.352 
09:20	59.6	59.6	59.6	54	42.9	1	2	338	0.00	30.352 
09:25	59.6	59.6	59.6	54	42.9	1	3	90	0.00	30.352 
09:30	59.8	59.8	59.8	54	43.1	0	2	90	0.00	30.355 
09:35	60.4	60.4	60.4	53	43.2	0	2	112	0.00	30.355 
09:40	61.0	61.0	61.0	54	44.2	0	1	112	0.00	30.355 
09:45	61.5	61.5	61.5	52	43.7	0	1	112	0.00	30.351 
09:50	62.1	62.1	62.1	51	43.8	0	1	112	0.00	30.351 
09:55	62.7	62.7	62.7	53	45.3	0	0	---	0.00	30.351 
10:00	63.2	63.2	63.2	50	44.2	0	1	112	0.00	30.348 
10:05	63.9	63.9	63.9	49	44.4	0	1	112	0.00	30.348 
10:10	64.5	64.5	64.5	47	43.8	0	1	112	0.00	30.348 
10:15	64.8	64.8	64.8	46	43.5	0	1	112	0.00	30.349 
10:20	65.2	65.2	65.2	46	43.9	0	1	112	0.00	30.349 
10:25	65.2	65.2	65.2	44	42.7	1	2	112	0.00	30.349 
10:30	65.6	65.6	65.6	41	41.3	0	2	112	0.00	30.349 
10:35	66.3	66.3	66.3	40	41.2	1	3	112	0.00	30.349 
10:40	66.9	66.9	66.9	44	44.3	0	1	112	0.00	30.349 
10:45	67.6	67.6	67.6	39	41.8	0	3	112	0.00	30.346 
10:50	68.1	68.1	68.1	39	42.2	0	2	112	0.00	30.346 
10:55	68.6	68.6	68.6	39	42.6	0	3	112	0.00	30.346 
11:00	69.1	69.1	69.1	43	45.7	0	1	112	0.00	30.346 
11:05	69.3	69.3	69.3	41	44.6	0	1	112	0.00	30.346 
11:10	69.6	69.6	69.6	39	43.5	0	1	112	0.00	30.346 
11:15	69.6	69.6	69.6	39	43.5	0	2	112	0.00	30.346 
11:20	69.6	69.6	69.6	39	43.5	0	2	112	0.00	30.346 
11:25	69.9	69.9	69.9	38	43.1	0	2	112	0.00	30.346 
11:30	70.6	70.6	70.6	35	41.6	0	1	112	0.00	30.344 
11:35	70.9	70.9	70.9	37	43.3	0	2	112	0.00	30.344 
11:40	71.6	71.6	71.6	37	43.9	0	2	112	0.00	30.344 
11:45	72.1	72.1	72.1	33	41.4	0	2	112	0.00	30.341 
11:50	72.3	72.3	72.3	35	43.1	0	2	112	0.00	30.341 
11:55	72.7	72.7	72.7	31	40.3	0	2	112	0.00	30.341 
12:00	72.8	72.8	72.8	32	41.2	0	1	112	0.00	30.332 
12:05	73.0	73.0	73.0	31	40.6	0	1	112	0.00	30.332 
12:10	73.5	73.5	73.5	33	42.6	0	1	112	0.00	30.332 
12:15	73.9	73.9	73.9	31	41.3	0	1	112	0.00	30.330 
12:20	73.9	73.9	73.9	29	39.6	0	1	112	0.00	30.330 
12:25	73.9	73.9	73.9	28	38.7	0	1	112	0.00	30.330 
12:30	74.4	74.4	74.4	31	41.8	0	1	112	0.00	30.327 
12:35	74.6	74.6	74.6	28	39.3	0	1	112	0.00	30.327 
12:40	74.6	74.6	74.6	27	38.4	0	2	112	0.00	30.327 
12:45	75.1	75.1	76.8	28	39.8	0	2	112	0.00	30.319 
12:50	75.1	75.1	76.8	28	39.8	0	2	112	0.00	30.319 
12:55	75.8	75.8	77.1	28	40.4	0	2	112	0.00	30.319 
13:00	76.3	76.3	77.6	33	45.1	0	2	112	0.00	30.313 
13:05	76.5	76.5	77.3	27	40.0	0	2	112	0.00	30.313 
13:10	77.0	77.0	77.7	30	43.2	0	1	112	0.00	30.313 
13:15	77.2	77.2	77.6	27	40.6	0	5	112	0.00	30.308 
13:20	77.0	77.0	77.4	26	39.5	1	4	292	0.00	30.308 
13:25	77.2	77.2	77.6	27	40.6	0	1	292	0.00	30.308 
13:30	77.2	77.2	77.6	27	40.6	1	3	292	0.00	30.307 
13:35	76.7	76.7	77.5	29	42.0	1	3	292	0.00	30.307 
13:40	76.5	76.5	77.3	28	41.0	2	4	292	0.00	30.307 
13:45	76.3	76.3	77.2	28	40.8	0	2	292	0.00	30.305 
13:50	76.5	76.5	77.3	27	40.0	1	3	292	0.00	30.305 
13:55	76.8	76.8	77.4	27	40.3	0	5	112	0.00	30.305 
14:00	76.8	76.8	77.5	28	41.2	0	2	112	0.00	30.300 
14:05	77.0	77.0	77.5	28	41.4	1	4	112	0.00	30.300 
14:10	77.4	77.4	77.8	29	42.6	0	1	112	0.00	30.300 
14:15	77.9	77.9	78.0	29	43.1	0	2	112	0.00	30.300 
14:20	78.6	78.6	78.5	31	45.4	0	4	112	0.00	30.300 
14:25	78.8	78.8	78.3	27	42.0	1	3	292	0.00	30.300 
14:30	78.5	78.5	78.2	27	41.7	1	3	292	0.00	30.296 
14:35	77.9	77.9	77.9	27	41.2	1	4	292	0.00	30.296 
14:40	77.9	77.9	78.0	29	43.1	0	2	292	0.00	30.296 
14:45	78.3	78.3	78.2	29	43.4	1	3	292	0.00	30.298 
14:50	78.6	78.6	78.3	28	42.7	0	2	292	0.00	30.298 
14:55	78.8	78.8	78.3	27	42.0	1	4	90	0.00	30.298 
15:00	78.6	78.6	78.2	27	41.8	1	4	90	0.00	30.291 
15:05	78.8	78.8	78.5	29	43.8	1	3	90	0.00	30.291 
15:10	78.6	78.6	78.2	27	41.8	1	3	90	0.00	30.291 
15:15	78.6	78.6	78.3	28	42.7	0	2	90	0.00	30.287 
15:20	79.0	79.0	78.6	29	44.0	0	2	22	0.00	30.287 
15:25	79.2	79.2	78.6	28	43.3	0	3	68	0.00	30.287 
15:30	79.2	79.2	78.6	28	43.3	1	4	270	0.00	30.280 
15:35	79.2	79.2	78.7	29	44.2	0	3	270	0.00	30.280 
15:40	79.8	79.8	78.9	28	43.8	0	2	90	0.00	30.280 
15:45	79.8	79.8	78.9	28	43.8	0	2	90	0.00	30.272 
15:50	79.9	79.9	79.0	28	43.9	0	2	90	0.00	30.272 
15:55	80.1	80.1	79.1	27	43.1	0	2	90	0.00	30.272 
16:00	79.6	79.6	78.8	27	42.7	1	4	270	0.00	30.267 
16:05	79.4	79.4	78.8	29	44.3	0	3	270	0.00	30.267 
16:10	79.8	79.8	78.9	28	43.8	1	5	270	0.00	30.267 
16:15	80.3	80.3	79.2	28	44.2	0	1	270	0.00	30.267 
16:20	80.3	80.3	79.2	28	44.2	0	3	0	0.00	30.267 
16:25	80.1	80.1	79.1	28	44.0	0	2	0	0.00	30.267 
16:30	80.3	80.3	79.2	28	44.2	0	3	315	0.00	30.258 
16:35	80.3	80.3	79.2	28	44.2	1	4	112	0.00	30.258 
16:40	79.8	79.8	78.9	28	43.8	1	2	112	0.00	30.258 
16:45	79.8	79.8	79.0	29	44.7	0	1	112	0.00	30.254 
16:50	80.1	80.1	79.4	32	47.6	0	1	112	0.00	30.254 
16:55	80.3	80.3	79.4	30	46.0	0	2	112	0.00	30.254 
17:00	80.7	80.7	79.5	29	45.5	0	1	112	0.00	30.250 
17:05	81.2	81.2	79.8	28	45.0	0	3	112	0.00	30.250 
17:10	81.1	81.1	79.7	28	44.9	0	4	112	0.00	30.250 
17:15	81.1	81.1	79.7	28	44.9	0	2	112	0.00	30.243 
17:20	80.7	80.7	79.4	27	43.6	1	4	112	0.00	30.243 
17:25	79.6	79.6	78.9	29	44.5	0	2	112	0.00	30.243 
17:30	79.0	79.0	78.6	29	44.0	0	1	112	0.00	30.239 
17:35	78.6	78.6	78.3	28	42.7	0	1	112	0.00	30.239 
17:40	78.3	78.3	78.2	29	43.4	0	1	112	0.00	30.239 
17:45	77.9	77.9	78.1	31	44.8	0	0	---	0.00	30.240 
17:50	78.1	78.1	78.3	32	45.8	0	2	112	0.00	30.240 
17:55	78.5	78.5	78.4	31	45.3	0	2	112	0.00	30.240 
18:00	78.3	78.3	78.1	28	42.5	0	2	112	0.00	30.238 
18:05	78.1	78.1	78.2	30	44.1	0	1	112	0.00	30.238 
18:10	77.9	77.9	78.1	31	44.8	0	1	112	0.00	30.238 
18:15	77.9	77.9	78.1	31	44.8	0	0	---	0.00	30.233 
18:20	77.7	77.7	78.0	30	43.8	0	0	---	0.00	30.233 
18:25	77.6	77.6	78.1	32	45.4	0	0	---	0.00	30.233 
18:30	77.6	77.6	78.0	31	44.5	0	0	---	0.00	30.237 
18:35	77.6	77.6	78.0	31	44.5	0	0	---	0.00	30.237 
18:40	77.6	77.6	78.0	31	44.5	0	1	112	0.00	30.237 
18:45	77.4	77.4	77.9	31	44.4	0	0	---	0.00	30.229 
18:50	77.2	77.2	77.8	31	44.2	0	1	112	0.00	30.229 
18:55	76.8	76.8	77.7	31	43.9	0	0	---	0.00	30.229 
19:00	76.7	76.7	77.8	34	46.2	0	1	112	0.00	30.223 
19:05	76.7	76.7	77.7	33	45.4	0	1	112	0.00	30.223 
19:10	76.7	76.7	77.7	33	45.4	0	1	112	0.00	30.223 
19:15	76.5	76.5	77.7	33	45.2	0	0	---	0.00	30.210 
19:20	76.5	76.5	77.7	34	46.0	0	0	---	0.00	30.210 
19:25	76.3	76.3	77.6	34	45.8	0	1	112	0.00	30.210 
19:30	76.3	76.3	77.6	34	45.8	0	0	---	0.00	30.206 
19:35	76.1	76.1	77.6	34	45.7	0	0	---	0.00	30.206 
19:40	76.0	76.0	77.5	33	44.8	0	0	---	0.00	30.206 
19:45	75.8	75.8	77.5	35	46.2	0	0	---	0.00	30.208 
19:50	75.8	75.8	77.4	33	44.6	0	0	---	0.00	30.208 
19:55	75.4	75.4	77.3	33	44.3	0	0	---	0.00	30.208 
20:00	75.4	75.4	77.3	33	44.3	0	0	---	0.00	30.208 
20:05	75.3	75.3	77.2	33	44.2	0	0	---	0.00	30.208 
20:10	75.1	75.1	77.2	34	44.8	0	0	---	0.00	30.208 
20:15	74.9	74.9	74.9	34	44.6	0	0	---	0.00	30.204 
20:20	74.6	74.6	74.6	35	45.1	0	0	---	0.00	30.204 
20:25	74.2	74.2	74.2	36	45.5	0	0	---	0.00	30.204 
20:30	73.9	73.9	73.9	37	46.0	0	0	---	0.00	30.208 
20:35	73.3	73.3	73.3	39	46.8	0	0	---	0.00	30.208 
20:40	72.8	72.8	72.8	39	46.4	0	1	22	0.00	30.208 
20:45	72.3	72.3	72.3	43	48.5	0	0	---	0.00	30.206 
20:50	71.6	71.6	71.6	43	47.9	0	0	---	0.00	30.206 
20:55	71.1	71.1	71.1	43	47.5	0	0	---	0.00	30.206 
21:00	70.6	70.6	70.6	44	47.6	0	0	---	0.00	30.206 
21:05	70.1	70.1	70.1	45	47.8	0	0	---	0.00	30.206 
21:10	69.6	69.6	69.6	45	47.3	0	0	---	0.00	30.206 
21:15	69.1	69.1	69.1	45	46.9	0	0	---	0.00	30.210 
21:20	68.6	68.6	68.6	48	48.1	0	0	---	0.00	30.210 
21:25	68.1	68.1	68.1	48	47.7	0	0	---	0.00	30.210 
21:30	67.6	67.6	67.6	48	47.2	0	0	---	0.00	30.216 
21:35	67.1	67.1	67.1	49	47.3	0	0	---	0.00	30.216 
21:40	66.8	66.8	66.8	50	47.6	0	0	---	0.00	30.216 
21:45	66.3	66.3	66.3	52	48.1	0	0	---	0.00	30.218 
21:50	65.8	65.8	65.8	52	47.7	0	0	---	0.00	30.218 
21:55	65.5	65.5	65.5	54	48.4	0	0	---	0.00	30.218 
22:00	65.2	65.2	65.2	55	48.6	0	0	---	0.00	30.218 
22:05	64.7	64.7	64.7	58	49.6	0	0	---	0.00	30.218 
22:10	64.3	64.3	64.3	58	49.2	0	0	---	0.00	30.218 
22:15	64.0	64.0	64.0	58	48.9	0	0	---	0.00	30.216 
22:20	63.5	63.5	63.5	58	48.5	0	0	---	0.00	30.216 
22:25	63.2	63.2	63.2	58	48.2	0	0	---	0.00	30.216 
22:30	63.1	63.1	63.1	59	48.5	0	0	---	0.00	30.216 
22:35	62.7	62.7	62.7	59	48.2	0	0	---	0.00	30.216 
22:40	62.6	62.6	62.6	61	49.0	0	0	---	0.00	30.216 
22:45	62.3	62.3	62.3	62	49.1	0	0	---	0.00	30.221 
22:50	62.0	62.0	62.0	62	48.8	0	0	---	0.00	30.221 
22:55	61.8	61.8	61.8	62	48.6	0	0	---	0.00	30.221 
23:00	61.5	61.5	61.5	63	48.8	0	0	---	0.00	30.221 
23:05	61.3	61.3	61.3	64	49.0	0	0	---	0.00	30.221 
23:10	61.0	61.0	61.0	65	49.1	0	0	---	0.00	30.221 
23:15	60.9	60.9	60.9	65	49.1	0	0	---	0.00	30.216 
23:20	60.5	60.5	60.5	65	48.7	0	0	---	0.00	30.216 
23:25	60.4	60.4	60.4	65	48.6	0	0	---	0.00	30.216 
23:30	60.2	60.2	60.2	66	48.8	0	0	---	0.00	30.217 
23:35	59.9	59.9	59.9	66	48.5	0	0	---	0.00	30.217 
23:40	59.8	59.8	59.8	68	49.2	0	0	---	0.00	30.217 
23:45	59.6	59.6	59.6	69	49.4	0	0	---	0.00	30.217 
23:50	59.3	59.3	59.3	69	49.1	0	0	---	0.00	30.217 
23:55	59.2	59.2	59.2	70	49.4	0	0	---	0.00	30.217 

CoCoRaHS
IN-AL-39
A2 Web Hosting
Creative Commons License
GoDaddy
search engine by freefind advanced

loaded 2018-11-14 00:42:25 • last modified 2010-11-18 10:43:29
Privacy PolicyDisclaimer
• wx.awcolley.com is powered by PmWiki v.2002016 •
• all content (unless otherwise noted) © 2018 A W Colley